createdAt,value
2018-06-15T19:14:57.638Z,44.30
2018-06-15T19:17:24.758Z,43.70
2018-06-15T19:19:51.885Z,43.00
2018-06-15T19:22:19.302Z,42.40
2018-06-15T19:27:13.996Z,41.30
2018-06-15T19:29:41.493Z,40.80
2018-06-15T19:32:08.752Z,40.40
2018-06-15T19:37:03.338Z,40.10
2018-06-15T19:39:30.626Z,40.10
2018-06-15T19:41:57.882Z,39.70
2018-06-15T19:44:25.513Z,39.90
2018-06-15T19:46:52.770Z,40.10
2018-06-15T19:49:20.007Z,40.30
2018-06-15T19:51:47.253Z,40.50
2018-06-15T19:54:14.483Z,40.50
2018-06-15T19:56:41.703Z,40.40
2018-06-15T19:59:09.322Z,40.30
2018-06-15T20:01:36.545Z,40.30
2018-06-15T20:04:03.841Z,40.40
2018-06-15T20:06:31.098Z,40.10
2018-06-15T20:08:58.323Z,40.10
2018-06-15T20:11:25.538Z,40.10
2018-06-15T20:13:52.813Z,40.00
2018-06-15T20:16:20.087Z,39.90
2018-06-15T20:18:47.323Z,39.80
2018-06-15T20:21:14.963Z,39.80
2018-06-15T20:23:42.218Z,39.70
2018-06-15T20:26:09.447Z,39.60
2018-06-15T20:28:36.657Z,39.20
2018-06-15T20:31:03.909Z,39.50
2018-06-15T20:33:31.218Z,39.50
2018-06-15T20:35:58.488Z,39.40
2018-06-15T20:38:25.709Z,39.40
2018-06-15T20:40:52.913Z,39.30
2018-06-15T20:43:20.669Z,39.20
2018-06-15T20:45:48.008Z,39.20
2018-06-15T20:48:15.226Z,39.10
2018-06-15T20:50:42.461Z,39.00
2018-06-15T20:53:09.681Z,38.90
2018-06-15T20:55:37.176Z,38.80
2018-06-15T21:00:31.802Z,38.80
2018-06-15T21:02:58.997Z,38.80
2018-06-15T21:05:26.240Z,39.20
2018-06-15T21:07:53.657Z,38.80
2018-06-15T21:10:21.562Z,38.80
2018-06-15T21:12:49.098Z,38.80
2018-06-15T21:15:16.634Z,38.80
2018-06-15T21:17:43.871Z,38.80
2018-06-15T21:20:11.098Z,38.70
2018-06-15T21:22:38.299Z,38.60
2018-06-15T21:25:05.773Z,38.60
2018-06-15T21:27:33.025Z,38.70
2018-06-15T21:30:00.230Z,38.80
2018-06-15T21:32:27.438Z,38.80
2018-06-15T21:34:54.650Z,38.90
2018-06-15T21:37:21.874Z,39.00
2018-06-15T21:39:49.087Z,39.00
2018-06-15T21:42:16.710Z,39.00
2018-06-15T21:44:43.925Z,39.00
2018-06-15T21:47:11.138Z,38.90
2018-06-15T21:49:38.680Z,38.90
2018-06-15T21:52:05.893Z,38.90
2018-06-15T21:54:33.173Z,38.90
2018-06-15T21:57:00.550Z,38.80
2018-06-15T21:59:27.785Z,38.80
2018-06-15T22:01:55.012Z,38.90
2018-06-15T22:04:22.198Z,38.80
2018-06-15T22:06:49.399Z,38.90
2018-06-15T22:09:16.625Z,38.80
2018-06-15T22:11:43.854Z,38.80
2018-06-15T22:14:14.299Z,38.70
2018-06-15T22:16:47.205Z,38.60
2018-06-15T22:19:14.445Z,38.60
2018-06-15T22:21:41.678Z,38.60
2018-06-15T22:24:08.902Z,38.60
2018-06-15T22:26:36.113Z,38.60
2018-06-15T22:29:03.673Z,38.60
2018-06-15T22:31:30.875Z,38.60
2018-06-15T22:33:58.094Z,38.60
2018-06-15T22:36:25.326Z,38.60
2018-06-15T22:38:52.651Z,38.60
2018-06-15T22:41:19.855Z,38.60
2018-06-15T22:43:47.365Z,38.70
2018-06-15T22:46:14.550Z,38.80
2018-06-15T22:48:41.771Z,38.90
2018-06-15T22:51:09.004Z,39.00
2018-06-15T22:53:36.571Z,39.10
2018-06-15T22:56:04.258Z,39.20
2018-06-15T22:58:31.491Z,39.30
2018-06-15T23:00:58.706Z,39.40
2018-06-15T23:03:26.337Z,39.50
2018-06-15T23:05:53.549Z,39.50
2018-06-15T23:08:20.770Z,39.50
2018-06-15T23:10:48.335Z,39.60
2018-06-15T23:13:15.555Z,39.60
2018-06-15T23:15:42.770Z,39.60
2018-06-15T23:18:10.304Z,39.50
2018-06-15T23:23:04.779Z,39.50
2018-06-15T23:25:31.968Z,39.60
2018-06-15T23:27:59.171Z,39.60
2018-06-15T23:30:26.412Z,39.70
2018-06-15T23:32:53.611Z,39.70
2018-06-15T23:35:20.825Z,39.70
2018-06-15T23:37:48.061Z,39.70
2018-06-15T23:40:15.282Z,39.70
2018-06-15T23:42:42.481Z,39.70
2018-06-15T23:47:37.040Z,39.50
2018-06-15T23:50:04.569Z,39.60
2018-06-15T23:52:32.122Z,39.60
2018-06-15T23:54:59.358Z,39.60
2018-06-15T23:57:26.546Z,39.60
2018-06-15T23:59:54.095Z,39.70
